sensor_id;sensor_type;location;lat;lon;timestamp;temperature;humidity
21473;DHT22;10898;48.072;11.682;2023-07-29T00:01:48;17.70;99.90
21473;DHT22;10898;48.072;11.682;2023-07-29T00:03:51;17.70;99.90
21473;DHT22;10898;48.072;11.682;2023-07-29T00:05:53;17.70;99.90
21473;DHT22;10898;48.072;11.682;2023-07-29T00:07:55;17.70;99.90
21473;DHT22;10898;48.072;11.682;2023-07-29T00:09:56;17.70;99.90
21473;DHT22;10898;48.072;11.682;2023-07-29T00:11:59;17.70;99.90
21473;DHT22;10898;48.072;11.682;2023-07-29T00:14:02;17.70;99.90
21473;DHT22;10898;48.072;11.682;2023-07-29T00:16:04;17.70;99.90
21473;DHT22;10898;48.072;11.682;2023-07-29T00:18:06;17.70;99.90
21473;DHT22;10898;48.072;11.682;2023-07-29T00:20:07;17.70;99.90
21473;DHT22;10898;48.072;11.682;2023-07-29T00:22:10;17.70;99.90
21473;DHT22;10898;48.072;11.682;2023-07-29T00:24:11;17.60;99.90
21473;DHT22;10898;48.072;11.682;2023-07-29T00:26:13;17.60;99.90
21473;DHT22;10898;48.072;11.682;2023-07-29T00:28:15;17.60;99.90
21473;DHT22;10898;48.072;11.682;2023-07-29T00:30:17;17.60;99.90
21473;DHT22;10898;48.072;11.682;2023-07-29T00:32:19;17.60;99.90
21473;DHT22;10898;48.072;11.682;2023-07-29T00:34:21;17.60;99.90
21473;DHT22;10898;48.072;11.682;2023-07-29T00:36:23;17.60;99.90
21473;DHT22;10898;48.072;11.682;2023-07-29T00:38:24;17.60;99.90
21473;DHT22;10898;48.072;11.682;2023-07-29T00:40:28;17.60;99.90
21473;DHT22;10898;48.072;11.682;2023-07-29T00:42:30;17.60;99.90
21473;DHT22;10898;48.072;11.682;2023-07-29T00:44:32;17.50;99.90
21473;DHT22;10898;48.072;11.682;2023-07-29T00:46:35;17.60;99.90
21473;DHT22;10898;48.072;11.682;2023-07-29T00:48:38;17.50;99.90
21473;DHT22;10898;48.072;11.682;2023-07-29T00:50:40;17.50;99.90
21473;DHT22;10898;48.072;11.682;2023-07-29T00:52:42;17.50;99.90
21473;DHT22;10898;48.072;11.682;2023-07-29T00:54:44;17.40;99.90
21473;DHT22;10898;48.072;11.682;2023-07-29T00:56:46;17.50;99.90
21473;DHT22;10898;48.072;11.682;2023-07-29T00:58:48;17.50;99.90
21473;DHT22;10898;48.072;11.682;2023-07-29T01:00:50;17.50;99.90
21473;DHT22;10898;48.072;11.682;2023-07-29T01:02:52;17.50;99.90
21473;DHT22;10898;48.072;11.682;2023-07-29T01:04:57;17.50;99.90
21473;DHT22;10898;48.072;11.682;2023-07-29T01:09:53;17.50;99.90
21473;DHT22;10898;48.072;11.682;2023-07-29T01:14:41;17.50;99.90
21473;DHT22;10898;48.072;11.682;2023-07-29T01:16:56;17.50;99.90
21473;DHT22;10898;48.072;11.682;2023-07-29T01:19:03;17.40;99.90
21473;DHT22;10898;48.072;11.682;2023-07-29T01:21:08;17.40;99.90
21473;DHT22;10898;48.072;11.682;2023-07-29T01:23:11;17.40;99.90
21473;DHT22;10898;48.072;11.682;2023-07-29T01:25:13;17.40;99.90
21473;DHT22;10898;48.072;11.682;2023-07-29T01:27:15;17.40;99.90
21473;DHT22;10898;48.072;11.682;2023-07-29T01:29:17;17.40;99.90
21473;DHT22;10898;48.072;11.682;2023-07-29T01:31:32;17.40;99.90
21473;DHT22;10898;48.072;11.682;2023-07-29T01:33:40;17.40;99.90
21473;DHT22;10898;48.072;11.682;2023-07-29T01:38:24;17.30;99.90
21473;DHT22;10898;48.072;11.682;2023-07-29T01:40:30;17.30;99.90
21473;DHT22;10898;48.072;11.682;2023-07-29T01:42:33;17.30;99.90
21473;DHT22;10898;48.072;11.682;2023-07-29T01:44:35;17.30;99.90
21473;DHT22;10898;48.072;11.682;2023-07-29T01:46:38;17.20;99.90
21473;DHT22;10898;48.072;11.682;2023-07-29T01:48:40;17.20;99.90
21473;DHT22;10898;48.072;11.682;2023-07-29T01:50:42;17.20;99.90
21473;DHT22;10898;48.072;11.682;2023-07-29T01:52:44;17.10;99.90
21473;DHT22;10898;48.072;11.682;2023-07-29T01:54:45;17.10;99.90
21473;DHT22;10898;48.072;11.682;2023-07-29T01:56:47;17.10;99.90
21473;DHT22;10898;48.072;11.682;2023-07-29T01:58:49;17.10;99.90
21473;DHT22;10898;48.072;11.682;2023-07-29T02:00:51;17.10;99.90
21473;DHT22;10898;48.072;11.682;2023-07-29T02:02:53;17.10;99.90
21473;DHT22;10898;48.072;11.682;2023-07-29T02:04:55;17.00;99.90
21473;DHT22;10898;48.072;11.682;2023-07-29T02:06:57;17.00;99.90
21473;DHT22;10898;48.072;11.682;2023-07-29T02:08:59;17.00;99.90
21473;DHT22;10898;48.072;11.682;2023-07-29T02:11:01;17.00;99.90
21473;DHT22;10898;48.072;11.682;2023-07-29T02:13:03;17.00;99.90
21473;DHT22;10898;48.072;11.682;2023-07-29T02:15:06;16.90;99.90
21473;DHT22;10898;48.072;11.682;2023-07-29T02:17:08;16.90;99.90
21473;DHT22;10898;48.072;11.682;2023-07-29T02:19:10;16.90;99.90
21473;DHT22;10898;48.072;11.682;2023-07-29T02:21:12;16.90;99.90
21473;DHT22;10898;48.072;11.682;2023-07-29T02:23:14;16.90;99.90
21473;DHT22;10898;48.072;11.682;2023-07-29T02:25:15;16.80;99.90
21473;DHT22;10898;48.072;11.682;2023-07-29T02:27:17;16.80;99.90
21473;DHT22;10898;48.072;11.682;2023-07-29T02:29:19;16.80;99.90
21473;DHT22;10898;48.072;11.682;2023-07-29T02:31:23;16.80;99.90
21473;DHT22;10898;48.072;11.682;2023-07-29T02:33:25;16.80;99.90
21473;DHT22;10898;48.072;11.682;2023-07-29T02:35:27;16.80;99.90
21473;DHT22;10898;48.072;11.682;2023-07-29T02:37:29;16.80;99.90
21473;DHT22;10898;48.072;11.682;2023-07-29T02:39:31;16.80;99.90
21473;DHT22;10898;48.072;11.682;2023-07-29T02:41:33;16.70;99.90
21473;DHT22;10898;48.072;11.682;2023-07-29T02:43:35;16.70;99.90
21473;DHT22;10898;48.072;11.682;2023-07-29T02:45:37;16.70;99.90
21473;DHT22;10898;48.072;11.682;2023-07-29T02:47:39;16.60;99.90
21473;DHT22;10898;48.072;11.682;2023-07-29T02:49:41;16.70;99.90
21473;DHT22;10898;48.072;11.682;2023-07-29T02:51:43;16.70;99.90
21473;DHT22;10898;48.072;11.682;2023-07-29T02:53:45;16.70;99.90
21473;DHT22;10898;48.072;11.682;2023-07-29T02:55:47;16.60;99.90
21473;DHT22;10898;48.072;11.682;2023-07-29T02:57:48;16.70;99.90
21473;DHT22;10898;48.072;11.682;2023-07-29T02:59:50;16.70;99.90
21473;DHT22;10898;48.072;11.682;2023-07-29T03:01:52;16.70;99.90
21473;DHT22;10898;48.072;11.682;2023-07-29T03:03:55;16.60;99.90
21473;DHT22;10898;48.072;11.682;2023-07-29T03:06:06;16.60;99.90
21473;DHT22;10898;48.072;11.682;2023-07-29T03:08:08;16.60;99.90
21473;DHT22;10898;48.072;11.682;2023-07-29T03:10:10;16.60;99.90
21473;DHT22;10898;48.072;11.682;2023-07-29T03:12:12;16.60;99.90
21473;DHT22;10898;48.072;11.682;2023-07-29T03:14:14;16.60;99.90
21473;DHT22;10898;48.072;11.682;2023-07-29T03:16:17;16.60;99.90
21473;DHT22;10898;48.072;11.682;2023-07-29T03:18:19;16.60;99.90
21473;DHT22;10898;48.072;11.682;2023-07-29T03:20:21;16.60;99.90
21473;DHT22;10898;48.072;11.682;2023-07-29T03:22:23;16.60;99.90
21473;DHT22;10898;48.072;11.682;2023-07-29T03:24:25;16.60;99.90
21473;DHT22;10898;48.072;11.682;2023-07-29T03:26:26;16.60;99.90
21473;DHT22;10898;48.072;11.682;2023-07-29T03:28:33;16.60;99.90
21473;DHT22;10898;48.072;11.682;2023-07-29T03:30:35;16.60;99.90
21473;DHT22;10898;48.072;11.682;2023-07-29T03:32:43;16.60;99.90
21473;DHT22;10898;48.072;11.682;2023-07-29T03:34:47;16.50;99.90
21473;DHT22;10898;48.072;11.682;2023-07-29T03:36:48;16.50;99.90
21473;DHT22;10898;48.072;11.682;2023-07-29T03:38:52;16.60;99.90
21473;DHT22;10898;48.072;11.682;2023-07-29T03:40:54;16.50;99.90
21473;DHT22;10898;48.072;11.682;2023-07-29T03:42:56;16.60;99.90
21473;DHT22;10898;48.072;11.682;2023-07-29T03:44:57;16.60;99.90
21473;DHT22;10898;48.072;11.682;2023-07-29T03:46:59;16.60;99.90
21473;DHT22;10898;48.072;11.682;2023-07-29T03:49:01;16.60;99.90
21473;DHT22;10898;48.072;11.682;2023-07-29T03:51:04;16.60;99.90
21473;DHT22;10898;48.072;11.682;2023-07-29T03:53:06;16.60;99.90
21473;DHT22;10898;48.072;11.682;2023-07-29T03:55:08;16.60;99.90
21473;DHT22;10898;48.072;11.682;2023-07-29T03:57:10;16.60;99.90
21473;DHT22;10898;48.072;11.682;2023-07-29T03:59:12;16.60;99.90
21473;DHT22;10898;48.072;11.682;2023-07-29T04:01:14;16.60;99.90
21473;DHT22;10898;48.072;11.682;2023-07-29T04:03:16;16.60;99.90
21473;DHT22;10898;48.072;11.682;2023-07-29T04:05:18;16.60;99.90
21473;DHT22;10898;48.072;11.682;2023-07-29T04:07:20;16.70;99.90
21473;DHT22;10898;48.072;11.682;2023-07-29T04:09:22;16.70;99.90
21473;DHT22;10898;48.072;11.682;2023-07-29T04:11:24;16.70;99.90
21473;DHT22;10898;48.072;11.682;2023-07-29T04:13:27;16.70;99.90
21473;DHT22;10898;48.072;11.682;2023-07-29T04:15:29;16.70;99.90
21473;DHT22;10898;48.072;11.682;2023-07-29T04:17:31;16.70;99.90
21473;DHT22;10898;48.072;11.682;2023-07-29T04:19:33;16.70;99.90
21473;DHT22;10898;48.072;11.682;2023-07-29T04:21:35;16.70;99.90
21473;DHT22;10898;48.072;11.682;2023-07-29T04:23:37;16.80;99.90
21473;DHT22;10898;48.072;11.682;2023-07-29T04:25:39;16.80;99.90
21473;DHT22;10898;48.072;11.682;2023-07-29T04:27:41;16.80;99.90
21473;DHT22;10898;48.072;11.682;2023-07-29T04:29:43;16.80;99.90
21473;DHT22;10898;48.072;11.682;2023-07-29T04:31:44;16.80;99.90
21473;DHT22;10898;48.072;11.682;2023-07-29T04:33:46;16.80;99.90
21473;DHT22;10898;48.072;11.682;2023-07-29T04:35:48;16.90;99.90
21473;DHT22;10898;48.072;11.682;2023-07-29T04:37:50;16.90;99.90
21473;DHT22;10898;48.072;11.682;2023-07-29T04:39:55;16.90;99.90
21473;DHT22;10898;48.072;11.682;2023-07-29T04:41:57;16.90;99.90
21473;DHT22;10898;48.072;11.682;2023-07-29T04:43:59;16.90;99.90
21473;DHT22;10898;48.072;11.682;2023-07-29T04:46:01;16.90;99.90
21473;DHT22;10898;48.072;11.682;2023-07-29T04:48:03;16.90;99.90
21473;DHT22;10898;48.072;11.682;2023-07-29T04:50:06;16.90;99.90
21473;DHT22;10898;48.072;11.682;2023-07-29T04:52:08;17.00;99.90
21473;DHT22;10898;48.072;11.682;2023-07-29T04:54:10;17.00;99.90
21473;DHT22;10898;48.072;11.682;2023-07-29T04:56:11;17.00;99.90
21473;DHT22;10898;48.072;11.682;2023-07-29T04:58:15;17.10;99.90
21473;DHT22;10898;48.072;11.682;2023-07-29T05:00:17;17.10;99.90
21473;DHT22;10898;48.072;11.682;2023-07-29T05:02:19;17.10;99.90
21473;DHT22;10898;48.072;11.682;2023-07-29T05:04:23;17.20;99.90
21473;DHT22;10898;48.072;11.682;2023-07-29T05:06:25;17.20;99.90
21473;DHT22;10898;48.072;11.682;2023-07-29T05:08:27;17.20;99.90
21473;DHT22;10898;48.072;11.682;2023-07-29T05:10:29;17.30;99.90
21473;DHT22;10898;48.072;11.682;2023-07-29T05:12:31;17.30;99.90
21473;DHT22;10898;48.072;11.682;2023-07-29T05:14:34;17.30;99.90
21473;DHT22;10898;48.072;11.682;2023-07-29T05:16:36;17.40;99.90
21473;DHT22;10898;48.072;11.682;2023-07-29T05:18:38;17.50;99.90
21473;DHT22;10898;48.072;11.682;2023-07-29T05:20:40;17.60;99.90
21473;DHT22;10898;48.072;11.682;2023-07-29T05:22:42;17.60;99.90
21473;DHT22;10898;48.072;11.682;2023-07-29T05:24:44;17.70;99.90
21473;DHT22;10898;48.072;11.682;2023-07-29T05:26:46;17.70;99.90
21473;DHT22;10898;48.072;11.682;2023-07-29T05:28:48;17.80;99.90
21473;DHT22;10898;48.072;11.682;2023-07-29T05:30:49;17.80;99.90
21473;DHT22;10898;48.072;11.682;2023-07-29T05:32:51;17.90;99.90
21473;DHT22;10898;48.072;11.682;2023-07-29T05:34:53;18.00;99.90
21473;DHT22;10898;48.072;11.682;2023-07-29T05:36:55;18.00;99.90
21473;DHT22;10898;48.072;11.682;2023-07-29T05:38:58;18.10;99.90
21473;DHT22;10898;48.072;11.682;2023-07-29T05:41:00;18.10;99.90
21473;DHT22;10898;48.072;11.682;2023-07-29T05:43:02;18.20;99.90
21473;DHT22;10898;48.072;11.682;2023-07-29T05:45:05;18.20;99.90
21473;DHT22;10898;48.072;11.682;2023-07-29T05:47:08;18.30;99.90
21473;DHT22;10898;48.072;11.682;2023-07-29T05:49:10;18.30;99.90
21473;DHT22;10898;48.072;11.682;2023-07-29T05:51:11;18.40;99.90
21473;DHT22;10898;48.072;11.682;2023-07-29T05:53:14;18.40;99.90
21473;DHT22;10898;48.072;11.682;2023-07-29T05:55:16;18.50;99.90
21473;DHT22;10898;48.072;11.682;2023-07-29T05:57:18;18.50;99.90
21473;DHT22;10898;48.072;11.682;2023-07-29T05:59:20;18.60;99.90
21473;DHT22;10898;48.072;11.682;2023-07-29T06:01:22;18.60;99.90
21473;DHT22;10898;48.072;11.682;2023-07-29T06:03:24;18.60;99.90
21473;DHT22;10898;48.072;11.682;2023-07-29T06:05:26;18.70;99.90
21473;DHT22;10898;48.072;11.682;2023-07-29T06:07:28;18.70;99.90
21473;DHT22;10898;48.072;11.682;2023-07-29T06:09:32;18.70;99.90
21473;DHT22;10898;48.072;11.682;2023-07-29T06:11:34;18.70;99.90
21473;DHT22;10898;48.072;11.682;2023-07-29T06:13:35;18.70;99.90
21473;DHT22;10898;48.072;11.682;2023-07-29T06:15:37;18.80;99.90
21473;DHT22;10898;48.072;11.682;2023-07-29T06:17:40;18.70;99.90
21473;DHT22;10898;48.072;11.682;2023-07-29T06:19:42;18.70;99.90
21473;DHT22;10898;48.072;11.682;2023-07-29T06:21:44;18.70;99.90
21473;DHT22;10898;48.072;11.682;2023-07-29T06:23:46;18.70;99.90
21473;DHT22;10898;48.072;11.682;2023-07-29T06:25:48;18.70;99.90
21473;DHT22;10898;48.072;11.682;2023-07-29T06:27:50;18.60;99.90
21473;DHT22;10898;48.072;11.682;2023-07-29T06:29:52;18.70;99.90
21473;DHT22;10898;48.072;11.682;2023-07-29T06:31:54;18.70;99.90
21473;DHT22;10898;48.072;11.682;2023-07-29T06:33:56;18.70;99.90
21473;DHT22;10898;48.072;11.682;2023-07-29T06:35:58;18.70;99.90
21473;DHT22;10898;48.072;11.682;2023-07-29T06:38:00;18.70;99.90
21473;DHT22;10898;48.072;11.682;2023-07-29T06:40:02;18.70;99.90
21473;DHT22;10898;48.072;11.682;2023-07-29T06:42:04;18.70;99.90
21473;DHT22;10898;48.072;11.682;2023-07-29T06:44:06;18.80;99.90
21473;DHT22;10898;48.072;11.682;2023-07-29T06:46:08;18.80;99.90
21473;DHT22;10898;48.072;11.682;2023-07-29T06:48:10;18.80;99.90
21473;DHT22;10898;48.072;11.682;2023-07-29T06:50:12;18.80;99.90
21473;DHT22;10898;48.072;11.682;2023-07-29T06:52:14;18.80;99.90
21473;DHT22;10898;48.072;11.682;2023-07-29T06:54:16;18.90;99.90
21473;DHT22;10898;48.072;11.682;2023-07-29T06:56:18;18.80;99.90
21473;DHT22;10898;48.072;11.682;2023-07-29T06:58:20;18.80;99.90
21473;DHT22;10898;48.072;11.682;2023-07-29T07:00:22;18.70;99.90
21473;DHT22;10898;48.072;11.682;2023-07-29T07:02:24;18.70;99.90
21473;DHT22;10898;48.072;11.682;2023-07-29T07:04:26;18.70;99.90
21473;DHT22;10898;48.072;11.682;2023-07-29T07:06:28;18.70;99.90
21473;DHT22;10898;48.072;11.682;2023-07-29T07:08:30;18.70;99.90
21473;DHT22;10898;48.072;11.682;2023-07-29T07:10:32;18.70;99.90
21473;DHT22;10898;48.072;11.682;2023-07-29T07:12:35;18.70;99.90
21473;DHT22;10898;48.072;11.682;2023-07-29T07:14:37;18.70;99.90
21473;DHT22;10898;48.072;11.682;2023-07-29T07:16:39;18.60;99.90
21473;DHT22;10898;48.072;11.682;2023-07-29T07:18:42;18.60;99.90
21473;DHT22;10898;48.072;11.682;2023-07-29T07:20:47;18.60;99.90
21473;DHT22;10898;48.072;11.682;2023-07-29T07:22:49;18.60;99.90
21473;DHT22;10898;48.072;11.682;2023-07-29T07:24:51;18.70;99.90
21473;DHT22;10898;48.072;11.682;2023-07-29T07:26:53;18.70;99.90
21473;DHT22;10898;48.072;11.682;2023-07-29T07:28:54;18.70;99.90
21473;DHT22;10898;48.072;11.682;2023-07-29T07:30:56;18.70;99.90
21473;DHT22;10898;48.072;11.682;2023-07-29T07:32:58;18.70;99.90
21473;DHT22;10898;48.072;11.682;2023-07-29T07:35:00;18.70;99.90
21473;DHT22;10898;48.072;11.682;2023-07-29T07:37:02;18.70;99.90
21473;DHT22;10898;48.072;11.682;2023-07-29T07:39:05;18.80;99.90
21473;DHT22;10898;48.072;11.682;2023-07-29T07:41:07;18.80;99.90
21473;DHT22;10898;48.072;11.682;2023-07-29T07:43:09;18.80;99.90
21473;DHT22;10898;48.072;11.682;2023-07-29T07:45:11;18.90;99.90
21473;DHT22;10898;48.072;11.682;2023-07-29T07:47:13;18.80;99.90
21473;DHT22;10898;48.072;11.682;2023-07-29T07:49:14;18.90;99.90
21473;DHT22;10898;48.072;11.682;2023-07-29T07:51:16;18.90;99.90
21473;DHT22;10898;48.072;11.682;2023-07-29T07:53:18;18.90;99.90
21473;DHT22;10898;48.072;11.682;2023-07-29T07:55:21;18.90;99.90
21473;DHT22;10898;48.072;11.682;2023-07-29T07:57:23;19.00;99.90
21473;DHT22;10898;48.072;11.682;2023-07-29T07:59:25;19.00;99.90
21473;DHT22;10898;48.072;11.682;2023-07-29T08:01:27;19.00;99.90
21473;DHT22;10898;48.072;11.682;2023-07-29T08:03:28;19.00;99.90
21473;DHT22;10898;48.072;11.682;2023-07-29T08:05:30;19.00;99.90
21473;DHT22;10898;48.072;11.682;2023-07-29T08:07:33;19.10;99.90
21473;DHT22;10898;48.072;11.682;2023-07-29T08:09:35;19.10;99.90
21473;DHT22;10898;48.072;11.682;2023-07-29T08:11:37;19.10;99.90
21473;DHT22;10898;48.072;11.682;2023-07-29T08:13:39;19.10;99.90
21473;DHT22;10898;48.072;11.682;2023-07-29T08:15:41;19.20;99.90
21473;DHT22;10898;48.072;11.682;2023-07-29T08:17:43;19.20;99.90
21473;DHT22;10898;48.072;11.682;2023-07-29T08:19:44;19.20;99.90
21473;DHT22;10898;48.072;11.682;2023-07-29T08:21:46;19.30;99.90
21473;DHT22;10898;48.072;11.682;2023-07-29T08:23:49;19.40;99.90
21473;DHT22;10898;48.072;11.682;2023-07-29T08:25:56;19.40;99.90
21473;DHT22;10898;48.072;11.682;2023-07-29T08:28:02;19.50;99.90
21473;DHT22;10898;48.072;11.682;2023-07-29T08:30:05;19.60;99.90
21473;DHT22;10898;48.072;11.682;2023-07-29T08:32:07;19.60;99.90
21473;DHT22;10898;48.072;11.682;2023-07-29T08:34:09;19.70;99.90
21473;DHT22;10898;48.072;11.682;2023-07-29T08:36:11;19.80;99.90
21473;DHT22;10898;48.072;11.682;2023-07-29T08:38:13;19.80;99.90
21473;DHT22;10898;48.072;11.682;2023-07-29T08:40:15;19.90;99.90
21473;DHT22;10898;48.072;11.682;2023-07-29T08:42:19;20.00;99.90
21473;DHT22;10898;48.072;11.682;2023-07-29T08:44:23;20.00;99.90
21473;DHT22;10898;48.072;11.682;2023-07-29T08:46:26;20.00;99.90
21473;DHT22;10898;48.072;11.682;2023-07-29T08:48:47;20.10;99.90
21473;DHT22;10898;48.072;11.682;2023-07-29T08:50:51;20.20;99.90
21473;DHT22;10898;48.072;11.682;2023-07-29T08:52:54;20.20;99.90
21473;DHT22;10898;48.072;11.682;2023-07-29T08:54:56;20.20;99.90
21473;DHT22;10898;48.072;11.682;2023-07-29T08:56:59;20.30;99.90
21473;DHT22;10898;48.072;11.682;2023-07-29T08:59:01;20.30;99.90
21473;DHT22;10898;48.072;11.682;2023-07-29T09:01:04;20.40;99.90
21473;DHT22;10898;48.072;11.682;2023-07-29T09:03:07;20.50;99.90
21473;DHT22;10898;48.072;11.682;2023-07-29T09:05:09;20.50;99.90
21473;DHT22;10898;48.072;11.682;2023-07-29T09:07:11;20.60;99.90
21473;DHT22;10898;48.072;11.682;2023-07-29T09:09:13;20.70;99.90
21473;DHT22;10898;48.072;11.682;2023-07-29T09:11:15;20.70;99.90
21473;DHT22;10898;48.072;11.682;2023-07-29T09:13:19;20.70;99.90
21473;DHT22;10898;48.072;11.682;2023-07-29T09:15:28;20.80;99.90
21473;DHT22;10898;48.072;11.682;2023-07-29T09:17:32;20.80;99.90
21473;DHT22;10898;48.072;11.682;2023-07-29T09:19:34;20.90;99.90
21473;DHT22;10898;48.072;11.682;2023-07-29T09:21:39;20.90;99.90
21473;DHT22;10898;48.072;11.682;2023-07-29T09:23:42;21.00;99.90
21473;DHT22;10898;48.072;11.682;2023-07-29T09:25:46;21.10;99.90
21473;DHT22;10898;48.072;11.682;2023-07-29T09:27:48;21.10;99.90
21473;DHT22;10898;48.072;11.682;2023-07-29T09:29:50;21.20;99.90
21473;DHT22;10898;48.072;11.682;2023-07-29T09:31:52;21.20;99.90
21473;DHT22;10898;48.072;11.682;2023-07-29T09:33:58;21.30;99.90
21473;DHT22;10898;48.072;11.682;2023-07-29T09:36:00;21.40;99.90
21473;DHT22;10898;48.072;11.682;2023-07-29T09:38:06;21.40;99.90
21473;DHT22;10898;48.072;11.682;2023-07-29T09:40:14;21.60;99.90
21473;DHT22;10898;48.072;11.682;2023-07-29T09:42:21;21.70;99.90
21473;DHT22;10898;48.072;11.682;2023-07-29T09:44:23;21.80;99.90
21473;DHT22;10898;48.072;11.682;2023-07-29T09:46:26;21.90;99.90
21473;DHT22;10898;48.072;11.682;2023-07-29T09:48:37;22.00;99.90
21473;DHT22;10898;48.072;11.682;2023-07-29T09:50:39;22.10;99.90
21473;DHT22;10898;48.072;11.682;2023-07-29T09:52:43;22.20;99.90
21473;DHT22;10898;48.072;11.682;2023-07-29T09:54:46;22.20;99.90
21473;DHT22;10898;48.072;11.682;2023-07-29T09:56:48;22.30;99.90
21473;DHT22;10898;48.072;11.682;2023-07-29T09:58:50;22.40;99.90
21473;DHT22;10898;48.072;11.682;2023-07-29T10:00:52;22.60;99.90
21473;DHT22;10898;48.072;11.682;2023-07-29T10:02:54;22.70;99.90
21473;DHT22;10898;48.072;11.682;2023-07-29T10:04:56;22.80;99.90
21473;DHT22;10898;48.072;11.682;2023-07-29T10:07:00;22.90;99.90
21473;DHT22;10898;48.072;11.682;2023-07-29T10:09:02;23.00;99.90
21473;DHT22;10898;48.072;11.682;2023-07-29T10:11:08;23.00;99.90
21473;DHT22;10898;48.072;11.682;2023-07-29T10:13:10;23.00;99.90
21473;DHT22;10898;48.072;11.682;2023-07-29T10:15:13;23.10;99.90
21473;DHT22;10898;48.072;11.682;2023-07-29T10:17:16;23.20;99.90
21473;DHT22;10898;48.072;11.682;2023-07-29T10:19:22;23.30;99.90
21473;DHT22;10898;48.072;11.682;2023-07-29T10:21:24;23.30;99.90
21473;DHT22;10898;48.072;11.682;2023-07-29T10:23:28;23.40;99.90
21473;DHT22;10898;48.072;11.682;2023-07-29T10:25:39;23.50;99.90
21473;DHT22;10898;48.072;11.682;2023-07-29T10:28:01;23.60;99.90
21473;DHT22;10898;48.072;11.682;2023-07-29T10:30:05;23.70;99.90
21473;DHT22;10898;48.072;11.682;2023-07-29T10:32:11;23.70;99.90
21473;DHT22;10898;48.072;11.682;2023-07-29T10:34:14;23.80;99.90
21473;DHT22;10898;48.072;11.682;2023-07-29T10:36:15;23.90;99.90
21473;DHT22;10898;48.072;11.682;2023-07-29T10:38:18;24.00;99.90
21473;DHT22;10898;48.072;11.682;2023-07-29T10:40:21;24.10;99.90
21473;DHT22;10898;48.072;11.682;2023-07-29T10:42:23;24.20;99.90
21473;DHT22;10898;48.072;11.682;2023-07-29T10:46:45;24.40;99.90
21473;DHT22;10898;48.072;11.682;2023-07-29T10:53:32;24.60;99.90
21473;DHT22;10898;48.072;11.682;2023-07-29T10:55:36;24.70;99.90
21473;DHT22;10898;48.072;11.682;2023-07-29T10:57:39;24.80;99.90
21473;DHT22;10898;48.072;11.682;2023-07-29T10:59:55;24.80;99.90
21473;DHT22;10898;48.072;11.682;2023-07-29T11:02:00;25.00;99.90
21473;DHT22;10898;48.072;11.682;2023-07-29T11:04:23;25.00;99.90
21473;DHT22;10898;48.072;11.682;2023-07-29T11:06:25;25.10;99.90
21473;DHT22;10898;48.072;11.682;2023-07-29T11:08:30;25.10;99.90
21473;DHT22;10898;48.072;11.682;2023-07-29T11:10:42;25.30;99.90
21473;DHT22;10898;48.072;11.682;2023-07-29T11:14:50;25.40;99.90
21473;DHT22;10898;48.072;11.682;2023-07-29T11:16:52;25.40;99.90
21473;DHT22;10898;48.072;11.682;2023-07-29T11:18:55;25.50;99.90
21473;DHT22;10898;48.072;11.682;2023-07-29T11:20:57;25.60;99.90
21473;DHT22;10898;48.072;11.682;2023-07-29T11:23:01;25.60;99.90
21473;DHT22;10898;48.072;11.682;2023-07-29T11:25:04;25.60;99.90
21473;DHT22;10898;48.072;11.682;2023-07-29T11:27:11;25.70;99.90
21473;DHT22;10898;48.072;11.682;2023-07-29T11:29:13;25.80;99.90
21473;DHT22;10898;48.072;11.682;2023-07-29T11:31:15;26.00;99.90
21473;DHT22;10898;48.072;11.682;2023-07-29T11:33:20;26.00;99.90
21473;DHT22;10898;48.072;11.682;2023-07-29T11:35:24;26.00;99.90
21473;DHT22;10898;48.072;11.682;2023-07-29T11:37:26;25.90;99.90
21473;DHT22;10898;48.072;11.682;2023-07-29T11:39:27;25.90;99.90
21473;DHT22;10898;48.072;11.682;2023-07-29T11:41:29;25.90;99.90
21473;DHT22;10898;48.072;11.682;2023-07-29T11:43:35;25.90;99.90
21473;DHT22;10898;48.072;11.682;2023-07-29T11:45:37;25.90;99.90
21473;DHT22;10898;48.072;11.682;2023-07-29T11:47:52;25.70;99.90
21473;DHT22;10898;48.072;11.682;2023-07-29T11:49:57;25.60;99.90
21473;DHT22;10898;48.072;11.682;2023-07-29T11:51:59;25.50;99.90
21473;DHT22;10898;48.072;11.682;2023-07-29T11:54:02;25.50;99.90
21473;DHT22;10898;48.072;11.682;2023-07-29T11:56:04;25.40;99.90
21473;DHT22;10898;48.072;11.682;2023-07-29T11:58:06;25.40;99.90
21473;DHT22;10898;48.072;11.682;2023-07-29T12:00:10;25.40;99.90
21473;DHT22;10898;48.072;11.682;2023-07-29T12:02:16;25.40;99.90
21473;DHT22;10898;48.072;11.682;2023-07-29T12:04:19;25.50;99.90
21473;DHT22;10898;48.072;11.682;2023-07-29T12:06:22;25.50;99.90
21473;DHT22;10898;48.072;11.682;2023-07-29T12:08:25;25.60;99.90
21473;DHT22;10898;48.072;11.682;2023-07-29T12:10:27;25.60;99.90
21473;DHT22;10898;48.072;11.682;2023-07-29T12:12:30;25.70;99.90
21473;DHT22;10898;48.072;11.682;2023-07-29T12:14:32;25.70;99.90
21473;DHT22;10898;48.072;11.682;2023-07-29T12:16:44;25.90;99.90
21473;DHT22;10898;48.072;11.682;2023-07-29T12:18:46;25.90;99.90
21473;DHT22;10898;48.072;11.682;2023-07-29T12:20:50;26.00;99.90
21473;DHT22;10898;48.072;11.682;2023-07-29T12:23:00;26.00;99.90
21473;DHT22;10898;48.072;11.682;2023-07-29T12:25:07;26.10;99.90
21473;DHT22;10898;48.072;11.682;2023-07-29T12:27:14;26.10;99.90
21473;DHT22;10898;48.072;11.682;2023-07-29T12:29:19;26.20;99.90
21473;DHT22;10898;48.072;11.682;2023-07-29T12:31:32;26.30;99.90
21473;DHT22;10898;48.072;11.682;2023-07-29T12:33:38;26.40;99.90
21473;DHT22;10898;48.072;11.682;2023-07-29T12:35:40;26.40;99.10
21473;DHT22;10898;48.072;11.682;2023-07-29T12:37:42;26.50;99.00
21473;DHT22;10898;48.072;11.682;2023-07-29T12:39:44;26.50;99.90
21473;DHT22;10898;48.072;11.682;2023-07-29T12:41:50;26.60;99.90
21473;DHT22;10898;48.072;11.682;2023-07-29T12:43:53;26.60;99.90
21473;DHT22;10898;48.072;11.682;2023-07-29T12:45:56;26.70;99.60
21473;DHT22;10898;48.072;11.682;2023-07-29T12:47:58;26.70;98.20
21473;DHT22;10898;48.072;11.682;2023-07-29T12:50:00;26.70;97.70
21473;DHT22;10898;48.072;11.682;2023-07-29T12:52:02;26.60;97.80
21473;DHT22;10898;48.072;11.682;2023-07-29T12:54:04;26.50;98.30
21473;DHT22;10898;48.072;11.682;2023-07-29T12:56:06;26.60;98.10
21473;DHT22;10898;48.072;11.682;2023-07-29T12:58:08;26.50;97.90
21473;DHT22;10898;48.072;11.682;2023-07-29T13:00:10;26.60;98.60
21473;DHT22;10898;48.072;11.682;2023-07-29T13:02:12;26.60;99.10